Time;durP1;ratioP1;P1;durP2;ratioP2;P2;SDS_P1;SDS_P2;PMS_P1;PMS_P2;Temp;Humidity;BMP_temperature;BMP_pressure;BME280_temperature;BME280_humidity;BME280_pressure;Samples;Min_cycle;Max_cycle;Signal;HPM_P1;HPM_P2
2022/10/01 00:01:12;;;;;;;8.88;6.68;;;;;;;11.52;86.77;100153.09;4988176;28;20473;-56
2022/10/01 00:03:39;;;;;;;7.10;6.38;;;;;;;11.52;86.53;100166.41;4989599;28;20392;-56
2022/10/01 00:06:04;;;;;;;7.22;6.53;;;;;;;11.51;87.34;100156.75;5000431;28;20682;-55
2022/10/01 00:08:30;;;;;;;8.18;6.43;;;;;;;11.52;87.28;100152.25;5008972;28;20026;-56
2022/10/01 00:10:57;;;;;;;8.40;6.97;;;;;;;11.51;87.53;100153.22;5007566;28;20042;-56
2022/10/01 00:13:25;;;;;;;7.78;6.88;;;;;;;11.49;87.78;100145.34;4998825;28;20062;-56
2022/10/01 00:15:50;;;;;;;8.30;6.90;;;;;;;11.49;87.38;100134.69;4990697;28;20031;-55
2022/10/01 00:18:16;;;;;;;8.60;6.72;;;;;;;11.48;88.11;100125.03;5003202;28;20538;-56
2022/10/01 00:20:42;;;;;;;9.02;6.70;;;;;;;11.42;87.87;100106.88;4991441;28;20030;-56
2022/10/01 00:23:12;;;;;;;7.40;6.32;;;;;;;11.43;87.70;100121.88;4957687;28;20062;-56
2022/10/01 00:25:38;;;;;;;9.57;6.53;;;;;;;11.49;87.31;100108.06;4979792;28;20049;-56
2022/10/01 00:28:04;;;;;;;7.68;6.97;;;;;;;11.43;87.77;100131.69;4991031;28;20160;-56
2022/10/01 00:30:29;;;;;;;8.07;6.15;;;;;;;11.39;87.88;100103.59;4989258;28;20113;-56
2022/10/01 00:32:54;;;;;;;8.20;6.88;;;;;;;11.30;88.44;100099.84;4989597;28;20382;-56
2022/10/01 00:35:23;;;;;;;6.97;6.38;;;;;;;11.34;88.87;100104.78;4989143;28;20041;-56
2022/10/01 00:37:52;;;;;;;7.30;6.60;;;;;;;11.25;88.41;100075.41;4990667;28;20026;-57
2022/10/01 00:40:19;;;;;;;7.97;6.15;;;;;;;11.33;88.21;100070.31;4987900;28;20385;-57
2022/10/01 00:42:46;;;;;;;7.45;6.70;;;;;;;11.39;87.83;100084.97;4969996;28;20027;-55
2022/10/01 00:45:15;;;;;;;7.07;6.38;;;;;;;11.32;88.54;100096.09;4969784;28;20110;-56
2022/10/01 00:47:54;;;;;;;7.30;5.93;;;;;;;11.40;89.02;100097.31;4970233;28;20034;-57
2022/10/01 00:50:32;;;;;;;6.97;6.10;;;;;;;11.39;88.74;100111.59;4992143;28;20030;-57
2022/10/01 00:53:03;;;;;;;10.27;6.68;;;;;;;11.40;89.28;100122.09;4989403;28;20270;-57
2022/10/01 00:55:36;;;;;;;6.85;6.20;;;;;;;11.35;89.48;100125.16;4988186;28;20026;-57
2022/10/01 00:58:03;;;;;;;6.68;5.90;;;;;;;11.39;89.17;100108.94;4989153;28;20358;-56
2022/10/01 01:00:30;;;;;;;6.53;5.97;;;;;;;11.38;89.41;100110.72;4992828;28;20038;-57
2022/10/01 01:02:56;;;;;;;8.68;6.15;;;;;;;11.39;89.88;100096.47;4989393;28;20084;-57
2022/10/01 01:05:22;;;;;;;6.78;6.20;;;;;;;11.35;91.12;100097.66;4987223;28;20486;-56
2022/10/01 01:07:51;;;;;;;7.82;6.38;;;;;;;11.32;90.75;100114.75;4988181;28;20049;-56
2022/10/01 01:10:31;;;;;;;6.68;6.07;;;;;;;11.23;91.95;100125.22;4987296;28;20050;-55
2022/10/01 01:13:09;;;;;;;6.95;6.35;;;;;;;11.20;92.55;100096.19;4988952;28;20459;-56
2022/10/01 01:15:42;;;;;;;8.32;6.25;;;;;;;11.21;92.88;100060.66;4989073;28;20038;-56
2022/10/01 01:18:12;;;;;;;7.22;6.07;;;;;;;11.10;92.96;100061.47;4989442;28;20136;-56
2022/10/01 01:21:21;;;;;;;6.32;5.75;;;;;;;11.10;93.83;100078.28;5000843;28;20091;-56
2022/10/01 01:23:56;;;;;;;8.32;6.47;;;;;;;11.07;94.07;100051.91;4992322;28;20018;-56
2022/10/01 01:26:30;;;;;;;6.13;5.57;;;;;;;11.04;94.41;99996.28;4991551;28;20083;-55
2022/10/01 01:29:12;;;;;;;5.55;5.05;;;;;;;10.98;94.93;99978.13;5001086;28;20025;-56
2022/10/01 01:31:45;;;;;;;7.82;5.63;;;;;;;11.07;95.07;99977.41;4994559;28;20361;-56
2022/10/01 01:34:16;;;;;;;6.63;5.07;;;;;;;11.07;94.04;99940.16;4993601;28;20388;-55
2022/10/01 01:36:48;;;;;;;6.78;5.50;;;;;;;10.99;95.64;99947.88;5012003;28;20022;-56
2022/10/01 01:39:20;;;;;;;6.07;5.50;;;;;;;10.95;95.83;99921.66;4991898;28;20042;-54
2022/10/01 01:41:50;;;;;;;6.45;4.95;;;;;;;10.83;97.47;99905.69;4990799;28;20022;-56
2022/10/01 01:44:25;;;;;;;6.28;5.45;;;;;;;10.82;97.48;99986.44;4990223;28;20099;-54
2022/10/01 01:46:55;;;;;;;5.82;4.95;;;;;;;10.74;98.21;99983.56;4991914;28;20392;-56
2022/10/01 01:49:22;;;;;;;4.95;4.55;;;;;;;10.73;98.17;99995.16;4992627;28;20093;-56
2022/10/01 01:51:53;;;;;;;5.57;4.75;;;;;;;10.81;98.22;100003.38;4992103;28;20029;-56
2022/10/01 01:54:21;;;;;;;6.13;5.30;;;;;;;10.75;98.46;99974.59;4991864;28;20037;-56
2022/10/01 01:56:49;;;;;;;5.88;4.90;;;;;;;10.75;98.57;99987.91;4991833;28;20026;-56
2022/10/01 01:59:18;;;;;;;7.80;5.03;;;;;;;10.72;98.69;100000.59;4990707;28;20083;-56
2022/10/01 02:01:45;;;;;;;7.07;4.68;;;;;;;10.71;98.74;99983.81;5004639;28;20030;-56
2022/10/01 02:04:21;;;;;;;8.73;4.78;;;;;;;10.71;98.96;99991.78;4971936;28;20034;-53
2022/10/01 02:07:25;;;;;;;6.05;5.45;;;;;;;10.71;100.00;99988.25;4972525;28;20057;-54
2022/10/01 02:10:38;;;;;;;6.57;5.18;;;;;;;10.70;100.00;99992.72;4927033;28;20049;-55
2022/10/01 02:13:07;;;;;;;5.93;4.45;;;;;;;10.76;99.53;99994.06;4956193;28;20085;-56
2022/10/01 02:16:17;;;;;;;4.88;4.50;;;;;;;10.71;100.00;99996.22;4991724;28;20026;-56
2022/10/01 02:19:08;;;;;;;5.63;4.20;;;;;;;10.74;100.00;99985.38;4973046;28;20022;-56
2022/10/01 02:21:40;;;;;;;4.63;4.22;;;;;;;10.72;100.00;99988.16;4975579;28;20018;-55
2022/10/01 02:24:24;;;;;;;4.10;3.80;;;;;;;10.66;100.00;99970.00;4991505;28;20026;-55
2022/10/01 02:26:51;;;;;;;4.80;4.35;;;;;;;10.75;100.00;99984.41;4974214;28;20026;-56
2022/10/01 02:29:20;;;;;;;4.30;3.90;;;;;;;10.75;100.00;99979.94;4990591;28;20038;-56
2022/10/01 02:31:48;;;;;;;4.00;3.63;;;;;;;10.76;100.00;99978.09;4973904;28;20030;-55
2022/10/01 02:34:15;;;;;;;4.57;3.50;;;;;;;10.78;100.00;99958.41;4973580;28;20440;-56
2022/10/01 02:36:46;;;;;;;3.70;3.30;;;;;;;10.74;100.00;99964.94;4991508;28;20026;-55
2022/10/01 02:39:17;;;;;;;3.28;3.08;;;;;;;10.83;100.00;99947.41;4991176;28;20035;-56
2022/10/01 02:41:46;;;;;;;4.10;3.80;;;;;;;10.80;100.00;99945.00;5002120;28;20083;-56
2022/10/01 02:44:21;;;;;;;4.00;3.15;;;;;;;10.83;100.00;99948.25;4995238;28;20482;-55
2022/10/01 02:47:01;;;;;;;3.33;3.03;;;;;;;10.87;100.00;99943.53;4991159;28;20477;-55
2022/10/01 02:49:29;;;;;;;3.50;3.20;;;;;;;10.84;99.74;99935.81;4990774;28;20027;-56
2022/10/01 02:52:39;;;;;;;4.10;3.42;;;;;;;10.89;100.00;99957.56;5000626;28;20022;-56
2022/10/01 02:55:12;;;;;;;3.70;3.40;;;;;;;10.84;100.00;99927.81;5010643;28;20046;-55
2022/10/01 02:57:38;;;;;;;3.58;3.28;;;;;;;10.90;100.00;99935.31;5005883;28;20040;-56
2022/10/01 03:00:08;;;;;;;3.60;3.33;;;;;;;10.96;99.97;99945.47;4973815;28;20034;-55
2022/10/01 03:02:34;;;;;;;3.63;3.33;;;;;;;11.01;99.69;99953.09;4971709;28;20070;-55
2022/10/01 03:05:00;;;;;;;3.70;3.40;;;;;;;10.99;100.00;99931.91;4973190;28;20030;-56
2022/10/01 03:07:29;;;;;;;4.13;3.30;;;;;;;10.99;100.00;99939.06;5005017;28;20035;-55
2022/10/01 03:09:54;;;;;;;4.03;3.03;;;;;;;10.95;99.94;99924.31;4990560;28;20464;-55
2022/10/01 03:12:22;;;;;;;3.03;2.83;;;;;;;11.03;99.58;99951.13;4984981;28;20120;-55
2022/10/01 03:14:47;;;;;;;3.38;3.08;;;;;;;11.12;98.97;99942.44;4980426;28;20418;-55
2022/10/01 03:17:14;;;;;;;3.03;2.78;;;;;;;11.05;99.77;99936.75;4991853;28;20062;-56
2022/10/01 03:19:40;;;;;;;3.00;2.80;;;;;;;11.04;99.40;99929.75;4979481;28;20034;-56
2022/10/01 03:22:06;;;;;;;2.92;2.72;;;;;;;11.02;99.74;99923.69;4971559;28;20038;-56
2022/10/01 03:24:32;;;;;;;2.85;2.67;;;;;;;11.05;99.81;99927.94;4970433;28;20029;-55
2022/10/01 03:27:00;;;;;;;2.88;2.67;;;;;;;11.06;100.00;99927.81;4971190;28;20106;-55
2022/10/01 03:29:26;;;;;;;2.72;2.50;;;;;;;11.07;100.00;99936.66;5000917;28;20034;-56
2022/10/01 03:31:51;;;;;;;2.72;2.30;;;;;;;11.13;99.52;99928.16;4997551;28;20427;-56
2022/10/01 03:34:20;;;;;;;2.60;2.40;;;;;;;11.07;100.00;99931.31;4987848;28;20461;-56
2022/10/01 03:36:48;;;;;;;2.50;2.30;;;;;;;11.06;100.00;99925.16;4990182;28;20022;-56
2022/10/01 03:39:14;;;;;;;2.40;2.30;;;;;;;11.11;100.00;99924.78;4991330;28;20083;-56
2022/10/01 03:41:39;;;;;;;2.25;2.15;;;;;;;11.13;100.00;99925.50;4990443;28;20019;-56
2022/10/01 03:44:05;;;;;;;2.50;2.20;;;;;;;11.15;100.00;99934.22;4989911;28;20022;-56
2022/10/01 03:46:30;;;;;;;2.33;2.20;;;;;;;11.17;100.00;99929.59;4990322;28;20099;-56
2022/10/01 03:48:59;;;;;;;3.05;2.40;;;;;;;11.20;100.00;99932.00;4971243;28;20117;-56
2022/10/01 03:51:27;;;;;;;2.20;2.10;;;;;;;11.24;100.00;99937.97;4974109;28;20118;-56
2022/10/01 03:53:53;;;;;;;2.45;2.25;;;;;;;11.18;100.00;99926.00;4989900;28;20061;-56
2022/10/01 03:56:18;;;;;;;2.22;2.13;;;;;;;11.26;100.00;99938.66;4971754;28;20026;-55
2022/10/01 03:58:44;;;;;;;2.10;2.00;;;;;;;11.27;100.00;99932.38;4989345;28;20103;-56
2022/10/01 04:01:10;;;;;;;2.08;1.88;;;;;;;11.31;100.00;99939.16;4989802;28;20042;-56
2022/10/01 04:03:36;;;;;;;2.05;1.95;;;;;;;11.31;100.00;99939.16;4992370;28;20030;-56
2022/10/01 04:06:04;;;;;;;3.08;1.95;;;;;;;11.33;100.00;99939.88;5009057;28;20465;-56
2022/10/01 04:08:30;;;;;;;2.10;2.00;;;;;;;11.41;100.00;99944.56;4992154;28;20411;-56
2022/10/01 04:10:56;;;;;;;2.10;1.70;;;;;;;11.45;100.00;99943.34;5009270;28;20140;-55
2022/10/01 04:13:21;;;;;;;2.47;1.67;;;;;;;11.41;100.00;99950.72;5009169;28;20041;-56
2022/10/01 04:15:49;;;;;;;1.75;1.65;;;;;;;11.43;100.00;99959.44;5006390;28;20038;-56
2022/10/01 04:18:18;;;;;;;1.80;1.70;;;;;;;11.44;100.00;99952.28;4987779;28;20069;-56
2022/10/01 04:20:44;;;;;;;1.85;1.75;;;;;;;11.46;100.00;99955.69;4989098;28;20538;-56
2022/10/01 04:23:09;;;;;;;3.25;1.80;;;;;;;11.46;100.00;99964.53;4972388;28;20030;-55
2022/10/01 04:25:35;;;;;;;1.70;1.60;;;;;;;11.47;100.00;99958.25;4972487;28;20147;-56
2022/10/01 04:28:04;;;;;;;1.88;1.77;;;;;;;11.49;100.00;99964.28;4990669;28;20117;-56
2022/10/01 04:30:35;;;;;;;2.05;1.67;;;;;;;11.54;100.00;99956.75;4989544;28;20456;-55
2022/10/01 04:33:00;;;;;;;1.60;1.50;;;;;;;11.55;100.00;99954.94;4971558;28;20038;-55
2022/10/01 04:35:26;;;;;;;1.73;1.63;;;;;;;11.55;100.00;99958.44;4988881;28;20416;-55
2022/10/01 04:38:02;;;;;;;1.85;1.67;;;;;;;11.57;100.00;99967.16;4989560;28;20033;-56
2022/10/01 04:40:31;;;;;;;2.00;1.52;;;;;;;11.58;100.00;99968.84;4996736;28;20022;-56
2022/10/01 04:42:56;;;;;;;1.80;1.70;;;;;;;11.59;100.00;99967.91;5014840;28;20054;-56
2022/10/01 04:45:22;;;;;;;1.77;1.67;;;;;;;11.62;100.00;99980.13;4989374;28;20054;-55
2022/10/01 04:47:54;;;;;;;3.88;1.80;;;;;;;11.63;100.00;99970.31;4988558;28;20076;-55
2022/10/01 04:50:22;;;;;;;2.20;2.00;;;;;;;11.69;100.00;99975.13;4995493;28;20026;-55
2022/10/01 04:52:48;;;;;;;2.10;2.00;;;;;;;11.72;100.00;99970.38;4972065;28;20035;-56
2022/10/01 04:55:15;;;;;;;2.97;2.08;;;;;;;11.70;100.00;99977.66;4972721;28;20030;-55
2022/10/01 04:57:41;;;;;;;1.80;1.70;;;;;;;11.69;100.00;99977.78;4992887;28;20472;-56
2022/10/01 05:00:10;;;;;;;3.42;2.20;;;;;;;11.70;100.00;99980.31;5006636;28;20050;-55
2022/10/01 05:02:35;;;;;;;2.67;2.20;;;;;;;11.71;100.00;99986.50;5012603;28;20029;-55
2022/10/01 05:05:03;;;;;;;2.30;2.15;;;;;;;11.76;100.00;99989.63;5011678;28;20030;-55
2022/10/01 05:07:33;;;;;;;2.53;2.33;;;;;;;11.74;100.00;99986.25;5012361;28;20052;-57
2022/10/01 05:09:59;;;;;;;2.45;2.25;;;;;;;11.76;100.00;99986.97;5010290;28;20907;-55
2022/10/01 05:12:28;;;;;;;3.03;2.72;;;;;;;11.76;100.00;99992.28;5009000;28;20022;-55
2022/10/01 05:14:54;;;;;;;2.60;2.42;;;;;;;11.78;100.00;99995.69;4993940;28;20528;-56
2022/10/01 05:17:21;;;;;;;3.60;2.45;;;;;;;11.77;100.00;99992.19;5002713;28;20060;-57
2022/10/01 05:19:47;;;;;;;3.05;2.75;;;;;;;11.78;100.00;100004.53;5011540;28;20026;-55
2022/10/01 05:22:15;;;;;;;2.90;2.65;;;;;;;11.79;100.00;99998.25;4997980;28;20033;-55
2022/10/01 05:24:42;;;;;;;5.55;2.80;;;;;;;11.82;100.00;100005.09;4991418;28;20026;-55
2022/10/01 05:27:12;;;;;;;4.90;2.90;;;;;;;11.86;100.00;100011.94;4991940;28;20465;-56
2022/10/01 05:29:41;;;;;;;3.03;2.67;;;;;;;11.81;100.00;100008.75;4978269;28;20040;-55
2022/10/01 05:32:08;;;;;;;2.92;2.70;;;;;;;11.87;100.00;100024.28;5001654;28;20053;-56
2022/10/01 05:34:34;;;;;;;3.15;2.80;;;;;;;11.88;100.00;100027.78;4954471;28;20023;-56
2022/10/01 05:37:01;;;;;;;3.00;2.75;;;;;;;11.91;100.00;100027.53;4999564;28;20474;-57
2022/10/01 05:39:27;;;;;;;4.20;3.28;;;;;;;11.95;100.00;100026.31;4990670;28;20031;-56
2022/10/01 05:41:54;;;;;;;7.68;3.42;;;;;;;11.92;100.00;100031.91;4990248;28;20080;-55
2022/10/01 05:44:22;;;;;;;3.78;3.05;;;;;;;11.93;100.00;100042.41;4973922;28;20032;-57
2022/10/01 05:46:49;;;;;;;4.95;3.55;;;;;;;11.94;100.00;100037.94;4974986;28;20405;-56
2022/10/01 05:49:16;;;;;;;3.60;3.30;;;;;;;11.95;100.00;100036.97;4986352;28;20031;-56
2022/10/01 05:51:44;;;;;;;4.65;3.47;;;;;;;11.94;100.00;100040.59;4973837;28;20435;-55
2022/10/01 05:54:11;;;;;;;3.97;3.67;;;;;;;11.98;100.00;100042.06;4990169;28;20499;-60
2022/10/01 05:56:36;;;;;;;3.75;3.45;;;;;;;11.98;100.00;100055.38;4990651;28;20831;-56
2022/10/01 05:59:02;;;;;;;5.13;3.63;;;;;;;11.98;100.00;100039.38;4990175;28;20034;-55
2022/10/01 06:01:28;;;;;;;5.72;4.07;;;;;;;11.98;100.00;100052.72;4990199;28;20066;-56
2022/10/01 06:03:53;;;;;;;6.32;4.53;;;;;;;12.00;100.00;100059.63;4989386;28;20029;-55
2022/10/01 06:06:22;;;;;;;5.63;4.30;;;;;;;12.01;100.00;100049.78;4992592;28;20045;-57
2022/10/01 06:08:48;;;;;;;8.82;4.55;;;;;;;12.02;100.00;100049.66;4991561;28;20110;-56
2022/10/01 06:11:15;;;;;;;4.88;4.30;;;;;;;12.02;100.00;100047.00;4990968;28;20125;-57
2022/10/01 06:13:45;;;;;;;7.78;5.10;;;;;;;12.04;100.00;100057.53;4990578;28;20493;-56
2022/10/01 06:16:12;;;;;;;6.88;4.50;;;;;;;12.04;100.00;100055.72;4961684;28;20030;-56
2022/10/01 06:18:37;;;;;;;5.20;4.57;;;;;;;12.00;100.00;100046.28;4999000;28;20489;-56
2022/10/01 06:21:05;;;;;;;7.70;4.80;;;;;;;11.99;100.00;100062.38;4988996;28;20034;-57
2022/10/01 06:23:33;;;;;;;5.43;4.78;;;;;;;12.01;100.00;100060.47;4973294;28;20022;-55
2022/10/01 06:26:00;;;;;;;9.45;5.28;;;;;;;11.97;100.00;100051.00;4990875;28;20037;-57
2022/10/01 06:28:26;;;;;;;5.85;5.35;;;;;;;12.05;100.00;100067.22;4992218;28;20033;-57
2022/10/01 06:30:52;;;;;;;5.95;5.40;;;;;;;12.02;100.00;100065.66;4997358;28;20022;-56
2022/10/01 06:33:18;;;;;;;7.03;5.50;;;;;;;12.05;100.00;100065.38;4989975;28;20030;-56
2022/10/01 06:35:50;;;;;;;7.68;5.60;;;;;;;12.15;100.00;100072.66;4988867;28;20019;-57
2022/10/01 06:38:21;;;;;;;7.65;6.10;;;;;;;12.10;100.00;100070.38;4999705;28;20038;-56
2022/10/01 06:40:55;;;;;;;11.00;7.07;;;;;;;12.12;100.00;100076.41;4972798;28;20030;-57
2022/10/01 06:43:22;;;;;;;9.57;7.50;;;;;;;12.09;100.00;100059.81;4954447;28;20042;-56
2022/10/01 06:45:49;;;;;;;8.20;7.13;;;;;;;12.20;100.00;100075.78;4954193;28;20397;-56
2022/10/01 06:48:18;;;;;;;8.00;6.65;;;;;;;12.26;100.00;100084.13;4985696;28;20027;-56
2022/10/01 06:50:45;;;;;;;11.70;7.47;;;;;;;12.31;100.00;100083.75;4990552;28;20026;-56
2022/10/01 06:53:11;;;;;;;8.02;7.03;;;;;;;12.34;100.00;100088.81;4989983;28;20029;-56
2022/10/01 06:55:37;;;;;;;9.00;6.93;;;;;;;12.40;100.00;100092.78;4991161;28;20461;-56
2022/10/01 06:58:21;;;;;;;8.35;6.85;;;;;;;12.45;100.00;100095.94;4988871;28;20023;-56
2022/10/01 07:00:48;;;;;;;10.75;6.90;;;;;;;12.45;100.00;100091.44;4990564;28;20030;-56
2022/10/01 07:03:19;;;;;;;8.82;7.40;;;;;;;12.55;100.00;100099.53;4991030;28;20032;-56
2022/10/01 07:05:46;;;;;;;9.10;7.82;;;;;;;12.62;100.00;100091.88;4990395;28;20124;-56
2022/10/01 07:08:12;;;;;;;9.48;7.70;;;;;;;12.66;100.00;100103.97;4991779;28;20471;-56
2022/10/01 07:10:39;;;;;;;9.82;7.43;;;;;;;12.70;100.00;100113.41;4990302;28;20111;-55
2022/10/01 07:13:06;;;;;;;9.05;8.13;;;;;;;12.73;100.00;100106.00;4990884;28;20080;-56
2022/10/01 07:15:32;;;;;;;10.65;8.45;;;;;;;12.78;100.00;100099.41;4990370;28;20027;-58
2022/10/01 07:17:57;;;;;;;11.10;8.18;;;;;;;12.76;100.00;100101.38;4980028;28;20068;-56
2022/10/01 07:20:25;;;;;;;9.80;8.82;;;;;;;12.77;100.00;100106.59;5009591;28;20475;-55
2022/10/01 07:22:56;;;;;;;9.52;8.50;;;;;;;12.91;100.00;100119.63;4998727;28;20374;-55
2022/10/01 07:25:22;;;;;;;8.73;7.93;;;;;;;12.98;100.00;100097.75;4990530;28;20026;-55
2022/10/01 07:27:47;;;;;;;9.57;8.68;;;;;;;12.98;100.00;100111.09;4973334;28;20117;-56
2022/10/01 07:30:12;;;;;;;12.65;8.38;;;;;;;12.98;100.00;100114.59;4990012;28;20472;-56
2022/10/01 07:32:38;;;;;;;10.20;8.68;;;;;;;13.01;100.00;100146.38;4991580;28;20018;-55
2022/10/01 07:35:04;;;;;;;10.05;8.82;;;;;;;12.93;100.00;100131.00;4988998;28;20448;-55
2022/10/01 07:37:30;;;;;;;10.07;9.00;;;;;;;12.98;100.00;100145.78;4973208;28;20431;-55
2022/10/01 07:39:56;;;;;;;12.35;8.88;;;;;;;12.96;100.00;100141.41;4990752;28;20030;-56
2022/10/01 07:42:21;;;;;;;12.05;9.30;;;;;;;12.95;100.00;100150.41;4973079;28;20026;-56
2022/10/01 07:44:46;;;;;;;11.93;9.50;;;;;;;12.98;100.00;100151.13;4962934;28;20030;-55
2022/10/01 07:47:13;;;;;;;10.45;9.23;;;;;;;12.97;100.00;100155.63;5009564;28;20047;-56
2022/10/01 07:49:39;;;;;;;13.10;9.52;;;;;;;13.01;100.00;100161.53;4992030;28;20030;-55
2022/10/01 07:52:05;;;;;;;16.08;9.20;;;;;;;12.98;100.00;100165.31;5008582;28;20036;-56
2022/10/01 07:54:30;;;;;;;13.63;9.38;;;;;;;13.03;100.00;100172.91;4989683;28;20419;-56
2022/10/01 07:56:58;;;;;;;12.30;10.00;;;;;;;13.04;100.00;100179.97;4990311;28;20044;-56
2022/10/01 07:59:26;;;;;;;15.27;9.48;;;;;;;13.04;100.00;100179.97;4989884;28;20354;-56
2022/10/01 08:01:52;;;;;;;10.45;8.90;;;;;;;13.06;100.00;100186.88;4972443;28;20022;-56
2022/10/01 08:07:05;;;;;;;13.18;9.65;;;;;;;13.09;100.00;100191.13;5008281;28;20125;-56
2022/10/01 08:09:33;;;;;;;15.57;10.25;;;;;;;13.11;100.00;100194.47;4976449;28;20096;-55
2022/10/01 08:11:59;;;;;;;11.98;9.00;;;;;;;13.19;100.00;100200.03;4988667;28;20113;-55
2022/10/01 08:14:27;;;;;;;15.35;9.10;;;;;;;13.14;100.00;100184.38;5001054;28;20118;-56
2022/10/01 08:16:56;;;;;;;12.40;8.70;;;;;;;13.28;100.00;100199.28;5009492;28;20438;-55
2022/10/01 08:19:24;;;;;;;11.25;8.70;;;;;;;13.32;100.00;100207.88;5008392;28;20025;-55
2022/10/01 08:21:49;;;;;;;11.75;8.40;;;;;;;13.37;100.00;100205.66;4999054;28;20109;-55
2022/10/01 08:24:16;;;;;;;11.02;7.85;;;;;;;13.36;100.00;100206.66;4967046;28;20038;-55
2022/10/01 08:26:42;;;;;;;12.68;7.13;;;;;;;13.46;100.00;100220.06;4972163;28;20035;-56
2022/10/01 08:29:07;;;;;;;7.82;6.70;;;;;;;13.44;100.00;100211.31;4968847;28;20049;-56
2022/10/01 08:31:35;;;;;;;8.18;6.65;;;;;;;13.50;100.00;100217.00;4987981;28;20042;-55
2022/10/01 08:34:03;;;;;;;7.75;5.85;;;;;;;13.49;100.00;100231.31;4974590;28;20395;-56
2022/10/01 08:36:29;;;;;;;9.55;5.65;;;;;;;13.48;100.00;100224.31;4989491;28;20049;-56
2022/10/01 08:38:54;;;;;;;5.72;4.75;;;;;;;13.53;100.00;100238.13;4972466;28;20369;-56
2022/10/01 08:41:35;;;;;;;7.47;5.15;;;;;;;13.56;100.00;100236.97;4989799;28;20052;-56
2022/10/01 08:44:06;;;;;;;5.65;4.20;;;;;;;13.54;100.00;100229.13;4972384;28;20045;-56
2022/10/01 08:46:34;;;;;;;5.80;4.10;;;;;;;13.58;100.00;100227.88;4989319;28;20105;-56
2022/10/01 08:49:05;;;;;;;4.93;3.92;;;;;;;13.75;100.00;100237.13;4989083;28;20053;-56
2022/10/01 08:51:56;;;;;;;11.02;4.50;;;;;;;13.87;100.00;100243.22;4989337;28;20133;-56
2022/10/01 08:54:58;;;;;;;6.65;4.40;;;;;;;13.83;100.00;100245.31;4971689;28;20039;-56
2022/10/01 08:57:29;;;;;;;5.32;3.63;;;;;;;13.76;100.00;100252.16;4983396;28;20055;-56
2022/10/01 08:59:58;;;;;;;6.65;3.90;;;;;;;13.76;100.00;100251.31;4981885;28;20069;-56
2022/10/01 09:02:27;;;;;;;7.83;4.13;;;;;;;13.84;100.00;100256.84;4987553;28;20109;-56
2022/10/01 09:04:58;;;;;;;8.45;4.63;;;;;;;13.90;100.00;100252.81;5011108;28;20760;-56
2022/10/01 09:08:10;;;;;;;10.65;4.57;;;;;;;14.03;100.00;100256.09;4985043;28;20092;-56
2022/10/01 09:10:39;;;;;;;8.63;4.20;;;;;;;14.14;100.00;100257.84;5028643;28;20497;-56
2022/10/01 09:13:08;;;;;;;10.82;4.78;;;;;;;14.32;100.00;100254.41;5083651;28;20032;-55
2022/10/01 09:15:39;;;;;;;13.02;5.28;;;;;;;14.44;100.00;100262.31;5045919;28;20034;-56
2022/10/01 09:18:44;;;;;;;9.80;4.55;;;;;;;14.60;100.00;100270.72;4971472;28;20459;-55
2022/10/01 09:21:49;;;;;;;10.82;4.88;;;;;;;14.68;100.00;100275.41;4972745;28;20026;-57
2022/10/01 09:24:29;;;;;;;11.02;4.85;;;;;;;14.65;100.00;100271.16;4985918;28;20046;-55
2022/10/01 09:26:54;;;;;;;18.92;5.60;;;;;;;14.87;100.00;100279.94;4992896;28;20018;-56
2022/10/01 09:29:30;;;;;;;14.50;5.78;;;;;;;15.11;100.00;100282.22;4987747;28;20535;-56
2022/10/01 09:32:00;;;;;;;14.80;5.13;;;;;;;15.22;99.40;100282.91;4997998;28;20022;-56
2022/10/01 09:34:36;;;;;;;;;;;;;;;15.32;99.75;100290.94;4971909;28;20537;-56
2022/10/01 09:37:13;;;;;;;14.75;5.40;;;;;;;15.62;98.42;100279.25;4988406;28;19910;-56
2022/10/01 09:40:22;;;;;;;14.20;4.78;;;;;;;15.93;95.77;100297.84;4974150;28;20062;-56
2022/10/01 09:42:48;;;;;;;17.17;4.72;;;;;;;16.10;92.60;100297.06;5006514;28;20041;-55
2022/10/01 09:45:17;;;;;;;13.95;4.13;;;;;;;15.99;91.79;100305.28;4991644;28;20027;-55
2022/10/01 09:47:47;;;;;;;14.03;4.13;;;;;;;15.80;89.90;100300.00;4991825;28;20033;-56
2022/10/01 09:50:18;;;;;;;14.90;3.75;;;;;;;15.64;88.91;100289.81;4969949;28;20045;-56
2022/10/01 09:52:47;;;;;;;10.02;3.72;;;;;;;15.44;90.26;100286.28;4983768;28;20490;-55
2022/10/01 09:55:35;;;;;;;10.27;2.78;;;;;;;15.85;90.51;100300.38;4990903;28;20049;-56
2022/10/01 09:58:11;;;;;;;16.45;3.78;;;;;;;16.00;89.31;100284.69;4988798;28;20072;-56
2022/10/01 10:00:39;;;;;;;14.57;3.90;;;;;;;16.34;88.06;100293.88;4984887;28;20030;-56
2022/10/01 10:03:04;;;;;;;15.70;3.50;;;;;;;16.76;88.47;100306.84;4991432;28;20538;-56
2022/10/01 10:05:41;;;;;;;14.52;4.22;;;;;;;17.02;85.03;100304.28;4972965;28;20042;-55
2022/10/01 10:08:19;;;;;;;12.90;3.63;;;;;;;16.70;84.17;100306.56;4990066;28;20469;-56
2022/10/01 10:10:57;;;;;;;16.15;3.50;;;;;;;16.44;84.48;100318.00;4984950;28;20055;-56
2022/10/01 10:13:46;;;;;;;13.13;3.72;;;;;;;16.10;85.70;100337.31;4988480;28;20481;-56
2022/10/01 10:16:45;;;;;;;19.73;4.10;;;;;;;15.77;89.11;100329.78;4991631;28;20057;-56
2022/10/01 10:19:29;;;;;;;14.05;3.97;;;;;;;15.83;90.57;100331.88;4990114;28;20041;-56
2022/10/01 10:22:09;;;;;;;13.60;3.88;;;;;;;15.96;91.43;100326.19;4990487;28;20118;-56
2022/10/01 10:24:35;;;;;;;13.60;3.38;;;;;;;16.31;90.19;100341.63;4964933;28;20392;-55
2022/10/01 10:27:04;;;;;;;18.05;4.18;;;;;;;16.54;88.81;100342.97;4990372;28;20030;-55
2022/10/01 10:29:36;;;;;;;14.88;3.17;;;;;;;16.82;90.62;100351.06;4971197;28;20034;-57
2022/10/01 10:32:13;;;;;;;11.60;2.67;;;;;;;16.96;86.74;100349.72;4990892;28;20362;-56
2022/10/01 10:34:45;;;;;;;9.73;3.33;;;;;;;17.20;85.80;100355.34;4985525;28;20026;-56
2022/10/01 10:37:16;;;;;;;15.35;3.47;;;;;;;17.41;85.49;100354.22;4972115;28;20430;-56
2022/10/01 10:39:48;;;;;;;11.35;3.47;;;;;;;17.61;82.50;100354.91;4986826;28;20122;-56
2022/10/01 10:42:14;;;;;;;15.48;3.78;;;;;;;17.90;82.28;100366.28;4981868;28;20529;-56
2022/10/01 10:44:42;;;;;;;18.05;4.07;;;;;;;18.24;81.95;100357.47;4989771;28;20105;-56
2022/10/01 10:47:17;;;;;;;14.75;3.42;;;;;;;18.51;79.39;100372.59;4990940;28;20018;-56
2022/10/01 10:49:50;;;;;;;12.88;3.25;;;;;;;18.60;75.27;100381.56;4990392;28;20425;-57
2022/10/01 10:52:36;;;;;;;13.07;3.70;;;;;;;19.14;77.16;100384.00;4979252;28;20539;-57
2022/10/01 10:55:30;;;;;;;14.20;3.67;;;;;;;19.64;75.95;100394.72;5010529;28;20026;-57
2022/10/01 10:58:13;;;;;;;15.10;3.47;;;;;;;20.12;75.33;100390.41;5010470;28;20096;-57
2022/10/01 11:00:51;;;;;;;12.68;3.30;;;;;;;20.52;72.91;100401.31;4992980;28;20026;-56
2022/10/01 11:03:22;;;;;;;10.43;2.83;;;;;;;20.89;68.51;100397.19;5006622;28;20058;-56
2022/10/01 11:05:50;;;;;;;13.32;3.30;;;;;;;21.02;66.69;100402.84;5010230;28;20107;-56
2022/10/01 11:08:24;;;;;;;11.20;2.80;;;;;;;20.79;65.42;100411.72;4968520;28;20396;-57
2022/10/01 11:11:09;;;;;;;12.65;2.53;;;;;;;20.60;65.79;100417.53;4992572;28;20076;-56
2022/10/01 11:13:58;;;;;;;9.98;2.60;;;;;;;20.56;68.64;100414.34;4992709;28;20455;-56
2022/10/01 11:16:36;;;;;;;11.30;2.97;;;;;;;20.63;63.02;100428.84;4993841;28;20078;-56
2022/10/01 11:19:32;;;;;;;10.30;2.60;;;;;;;20.97;63.04;100426.88;5004392;28;20050;-56
2022/10/01 11:22:21;;;;;;;12.70;3.20;;;;;;;20.73;61.31;100434.03;4972799;28;20037;-57
2022/10/01 11:24:53;;;;;;;13.98;3.20;;;;;;;21.03;59.70;100437.84;4990633;28;20106;-56
2022/10/01 11:27:44;;;;;;;9.13;3.00;;;;;;;20.91;60.46;100441.91;4994729;28;20490;-57
2022/10/01 11:30:19;;;;;;;10.40;2.90;;;;;;;21.24;59.24;100453.47;5010132;28;20079;-56
2022/10/01 11:32:48;;;;;;;12.63;3.42;;;;;;;21.73;61.43;100447.81;4992507;28;20261;-57
2022/10/01 11:35:54;;;;;;;12.15;2.83;;;;;;;22.35;58.11;100457.69;5009271;28;20034;-56
2022/10/01 11:38:41;;;;;;;14.60;2.88;;;;;;;22.62;56.94;100455.41;5008391;28;20442;-57
2022/10/01 11:41:18;;;;;;;11.60;2.90;;;;;;;23.25;51.01;100464.88;5010035;28;20100;-57
2022/10/01 11:44:06;;;;;;;8.85;2.85;;;;;;;23.75;51.09;100462.38;4994400;28;20041;-57